sensor_id;sensor_type;location;lat;lon;timestamp;temperature;humidity
57857;DHT22;43683;48.650;9.290;2023-05-07T00:00:16;11.30;82.20
57857;DHT22;43683;48.650;9.290;2023-05-07T00:02:44;11.20;82.30
57857;DHT22;43683;48.650;9.290;2023-05-07T00:05:10;11.20;82.70
57857;DHT22;43683;48.650;9.290;2023-05-07T00:07:35;11.30;83.00
57857;DHT22;43683;48.650;9.290;2023-05-07T00:10:02;11.30;83.00
57857;DHT22;43683;48.650;9.290;2023-05-07T00:12:27;11.40;83.10
57857;DHT22;43683;48.650;9.290;2023-05-07T00:14:56;11.40;83.10
57857;DHT22;43683;48.650;9.290;2023-05-07T00:17:22;11.50;83.20
57857;DHT22;43683;48.650;9.290;2023-05-07T00:19:48;11.60;83.10
57857;DHT22;43683;48.650;9.290;2023-05-07T00:22:13;11.70;82.90
57857;DHT22;43683;48.650;9.290;2023-05-07T00:24:39;11.80;82.80
57857;DHT22;43683;48.650;9.290;2023-05-07T00:27:05;11.80;83.20
57857;DHT22;43683;48.650;9.290;2023-05-07T00:29:30;11.80;82.50
57857;DHT22;43683;48.650;9.290;2023-05-07T00:31:56;11.80;82.60
57857;DHT22;43683;48.650;9.290;2023-05-07T00:34:21;11.70;82.80
57857;DHT22;43683;48.650;9.290;2023-05-07T00:36:47;11.70;83.10
57857;DHT22;43683;48.650;9.290;2023-05-07T00:39:13;11.60;83.30
57857;DHT22;43683;48.650;9.290;2023-05-07T00:41:39;11.50;83.60
57857;DHT22;43683;48.650;9.290;2023-05-07T00:44:04;11.50;83.80
57857;DHT22;43683;48.650;9.290;2023-05-07T00:46:30;11.50;83.90
57857;DHT22;43683;48.650;9.290;2023-05-07T00:48:56;11.50;84.10
57857;DHT22;43683;48.650;9.290;2023-05-07T00:51:24;11.40;84.30
57857;DHT22;43683;48.650;9.290;2023-05-07T00:53:50;11.40;84.50
57857;DHT22;43683;48.650;9.290;2023-05-07T00:56:16;11.40;84.50
57857;DHT22;43683;48.650;9.290;2023-05-07T00:58:42;11.40;84.40
57857;DHT22;43683;48.650;9.290;2023-05-07T01:01:08;11.40;84.50
57857;DHT22;43683;48.650;9.290;2023-05-07T01:03:33;11.40;84.60
57857;DHT22;43683;48.650;9.290;2023-05-07T01:05:59;11.30;84.80
57857;DHT22;43683;48.650;9.290;2023-05-07T01:08:26;11.30;85.00
57857;DHT22;43683;48.650;9.290;2023-05-07T01:10:55;11.20;84.90
57857;DHT22;43683;48.650;9.290;2023-05-07T01:13:21;11.20;85.10
57857;DHT22;43683;48.650;9.290;2023-05-07T01:15:47;11.20;85.20
57857;DHT22;43683;48.650;9.290;2023-05-07T01:18:13;11.20;85.30
57857;DHT22;43683;48.650;9.290;2023-05-07T01:20:39;11.20;85.40
57857;DHT22;43683;48.650;9.290;2023-05-07T01:23:05;11.10;85.40
57857;DHT22;43683;48.650;9.290;2023-05-07T01:25:32;11.20;85.40
57857;DHT22;43683;48.650;9.290;2023-05-07T01:27:57;11.30;85.30
57857;DHT22;43683;48.650;9.290;2023-05-07T01:30:25;11.30;85.20
57857;DHT22;43683;48.650;9.290;2023-05-07T01:32:56;11.30;85.20
57857;DHT22;43683;48.650;9.290;2023-05-07T01:35:27;11.30;85.40
57857;DHT22;43683;48.650;9.290;2023-05-07T01:37:54;11.30;85.50
57857;DHT22;43683;48.650;9.290;2023-05-07T01:40:20;11.20;85.50
57857;DHT22;43683;48.650;9.290;2023-05-07T01:42:46;11.20;85.70
57857;DHT22;43683;48.650;9.290;2023-05-07T01:45:13;11.10;85.90
57857;DHT22;43683;48.650;9.290;2023-05-07T01:47:39;11.10;85.90
57857;DHT22;43683;48.650;9.290;2023-05-07T01:50:08;11.10;86.10
57857;DHT22;43683;48.650;9.290;2023-05-07T01:52:34;11.00;86.40
57857;DHT22;43683;48.650;9.290;2023-05-07T01:55:00;11.00;86.30
57857;DHT22;43683;48.650;9.290;2023-05-07T01:57:25;11.00;86.40
57857;DHT22;43683;48.650;9.290;2023-05-07T01:59:51;11.00;86.40
57857;DHT22;43683;48.650;9.290;2023-05-07T02:02:16;11.00;86.50
57857;DHT22;43683;48.650;9.290;2023-05-07T02:04:42;11.00;86.60
57857;DHT22;43683;48.650;9.290;2023-05-07T02:07:07;10.90;86.70
57857;DHT22;43683;48.650;9.290;2023-05-07T02:09:33;10.90;86.90
57857;DHT22;43683;48.650;9.290;2023-05-07T02:11:58;10.80;87.10
57857;DHT22;43683;48.650;9.290;2023-05-07T02:14:24;10.80;87.20
57857;DHT22;43683;48.650;9.290;2023-05-07T02:16:51;10.80;88.20
57857;DHT22;43683;48.650;9.290;2023-05-07T02:19:16;10.80;87.50
57857;DHT22;43683;48.650;9.290;2023-05-07T02:21:42;10.70;87.70
57857;DHT22;43683;48.650;9.290;2023-05-07T02:24:07;10.70;87.80
57857;DHT22;43683;48.650;9.290;2023-05-07T02:26:33;10.60;87.80
57857;DHT22;43683;48.650;9.290;2023-05-07T02:28:59;10.60;87.90
57857;DHT22;43683;48.650;9.290;2023-05-07T02:31:25;10.60;88.10
57857;DHT22;43683;48.650;9.290;2023-05-07T02:33:50;10.50;88.10
57857;DHT22;43683;48.650;9.290;2023-05-07T02:36:16;10.50;88.30
57857;DHT22;43683;48.650;9.290;2023-05-07T02:38:41;10.50;88.30
57857;DHT22;43683;48.650;9.290;2023-05-07T02:41:07;10.50;88.30
57857;DHT22;43683;48.650;9.290;2023-05-07T02:43:32;10.50;88.40
57857;DHT22;43683;48.650;9.290;2023-05-07T02:46:06;10.40;88.50
57857;DHT22;43683;48.650;9.290;2023-05-07T02:48:32;10.40;88.90
57857;DHT22;43683;48.650;9.290;2023-05-07T02:50:58;10.30;88.90
57857;DHT22;43683;48.650;9.290;2023-05-07T02:53:24;10.30;89.10
57857;DHT22;43683;48.650;9.290;2023-05-07T02:55:56;10.20;89.30
57857;DHT22;43683;48.650;9.290;2023-05-07T02:58:22;10.20;89.50
57857;DHT22;43683;48.650;9.290;2023-05-07T03:00:48;10.20;89.50
57857;DHT22;43683;48.650;9.290;2023-05-07T03:03:14;10.10;89.60
57857;DHT22;43683;48.650;9.290;2023-05-07T03:05:40;10.10;89.70
57857;DHT22;43683;48.650;9.290;2023-05-07T03:08:05;10.10;89.70
57857;DHT22;43683;48.650;9.290;2023-05-07T03:10:31;10.10;89.50
57857;DHT22;43683;48.650;9.290;2023-05-07T03:12:56;10.20;89.50
57857;DHT22;43683;48.650;9.290;2023-05-07T03:15:22;10.10;89.70
57857;DHT22;43683;48.650;9.290;2023-05-07T03:17:48;10.00;89.80
57857;DHT22;43683;48.650;9.290;2023-05-07T03:20:14;10.00;90.00
57857;DHT22;43683;48.650;9.290;2023-05-07T03:22:39;10.00;90.10
57857;DHT22;43683;48.650;9.290;2023-05-07T03:25:06;9.90;90.10
57857;DHT22;43683;48.650;9.290;2023-05-07T03:27:31;9.90;90.20
57857;DHT22;43683;48.650;9.290;2023-05-07T03:29:57;9.80;90.20
57857;DHT22;43683;48.650;9.290;2023-05-07T03:32:22;9.70;90.30
57857;DHT22;43683;48.650;9.290;2023-05-07T03:34:48;9.60;90.30
57857;DHT22;43683;48.650;9.290;2023-05-07T03:37:13;9.60;90.40
57857;DHT22;43683;48.650;9.290;2023-05-07T03:39:39;9.50;90.40
57857;DHT22;43683;48.650;9.290;2023-05-07T03:42:05;9.40;90.40
57857;DHT22;43683;48.650;9.290;2023-05-07T03:44:30;9.30;90.50
57857;DHT22;43683;48.650;9.290;2023-05-07T03:46:56;9.30;90.50
57857;DHT22;43683;48.650;9.290;2023-05-07T03:49:21;9.30;90.60
57857;DHT22;43683;48.650;9.290;2023-05-07T03:51:47;9.30;90.50
57857;DHT22;43683;48.650;9.290;2023-05-07T03:54:12;9.20;90.60
57857;DHT22;43683;48.650;9.290;2023-05-07T03:56:38;9.10;90.60
57857;DHT22;43683;48.650;9.290;2023-05-07T03:59:03;9.20;90.70
57857;DHT22;43683;48.650;9.290;2023-05-07T04:01:29;9.10;90.70
57857;DHT22;43683;48.650;9.290;2023-05-07T04:03:55;9.10;90.70
57857;DHT22;43683;48.650;9.290;2023-05-07T04:06:21;9.10;90.70
57857;DHT22;43683;48.650;9.290;2023-05-07T04:08:46;9.10;90.80
57857;DHT22;43683;48.650;9.290;2023-05-07T04:11:12;9.00;90.80
57857;DHT22;43683;48.650;9.290;2023-05-07T04:13:37;9.00;90.80
57857;DHT22;43683;48.650;9.290;2023-05-07T04:16:04;9.10;90.80
57857;DHT22;43683;48.650;9.290;2023-05-07T04:18:30;9.10;90.70
57857;DHT22;43683;48.650;9.290;2023-05-07T04:20:55;9.10;90.70
57857;DHT22;43683;48.650;9.290;2023-05-07T04:23:21;9.20;90.60
57857;DHT22;43683;48.650;9.290;2023-05-07T04:25:47;9.20;90.50
57857;DHT22;43683;48.650;9.290;2023-05-07T04:28:12;9.30;90.50
57857;DHT22;43683;48.650;9.290;2023-05-07T04:30:38;9.30;90.50
57857;DHT22;43683;48.650;9.290;2023-05-07T04:33:04;9.30;90.50
57857;DHT22;43683;48.650;9.290;2023-05-07T04:35:29;9.30;90.50
57857;DHT22;43683;48.650;9.290;2023-05-07T04:37:55;9.40;90.50
57857;DHT22;43683;48.650;9.290;2023-05-07T04:40:20;9.40;90.50
57857;DHT22;43683;48.650;9.290;2023-05-07T04:42:46;9.40;90.40
57857;DHT22;43683;48.650;9.290;2023-05-07T04:45:11;9.40;90.40
57857;DHT22;43683;48.650;9.290;2023-05-07T04:47:38;9.50;90.40
57857;DHT22;43683;48.650;9.290;2023-05-07T04:50:04;9.50;90.40
57857;DHT22;43683;48.650;9.290;2023-05-07T04:52:30;9.50;90.40
57857;DHT22;43683;48.650;9.290;2023-05-07T04:54:58;9.50;90.40
57857;DHT22;43683;48.650;9.290;2023-05-07T04:57:24;9.60;90.40
57857;DHT22;43683;48.650;9.290;2023-05-07T04:59:50;9.70;90.30
57857;DHT22;43683;48.650;9.290;2023-05-07T05:02:16;9.80;90.30
57857;DHT22;43683;48.650;9.290;2023-05-07T05:04:41;9.90;90.20
57857;DHT22;43683;48.650;9.290;2023-05-07T05:07:07;9.90;90.20
57857;DHT22;43683;48.650;9.290;2023-05-07T05:09:32;10.00;90.20
57857;DHT22;43683;48.650;9.290;2023-05-07T05:11:59;10.10;90.10
57857;DHT22;43683;48.650;9.290;2023-05-07T05:14:24;10.20;90.00
57857;DHT22;43683;48.650;9.290;2023-05-07T05:16:50;10.30;89.90
57857;DHT22;43683;48.650;9.290;2023-05-07T05:19:15;10.40;89.70
57857;DHT22;43683;48.650;9.290;2023-05-07T05:21:41;10.60;89.70
57857;DHT22;43683;48.650;9.290;2023-05-07T05:24:07;10.60;89.60
57857;DHT22;43683;48.650;9.290;2023-05-07T05:26:32;10.70;89.50
57857;DHT22;43683;48.650;9.290;2023-05-07T05:28:58;10.90;89.40
57857;DHT22;43683;48.650;9.290;2023-05-07T05:31:23;11.00;89.30
57857;DHT22;43683;48.650;9.290;2023-05-07T05:33:49;11.10;89.10
57857;DHT22;43683;48.650;9.290;2023-05-07T05:36:14;11.20;88.90
57857;DHT22;43683;48.650;9.290;2023-05-07T05:38:40;11.40;88.70
57857;DHT22;43683;48.650;9.290;2023-05-07T05:41:05;11.50;88.50
57857;DHT22;43683;48.650;9.290;2023-05-07T05:43:31;11.70;88.40
57857;DHT22;43683;48.650;9.290;2023-05-07T05:45:57;11.90;88.30
57857;DHT22;43683;48.650;9.290;2023-05-07T05:48:23;12.00;88.10
57857;DHT22;43683;48.650;9.290;2023-05-07T05:50:48;12.20;88.00
57857;DHT22;43683;48.650;9.290;2023-05-07T05:53:14;12.40;87.80
57857;DHT22;43683;48.650;9.290;2023-05-07T05:55:41;12.60;87.60
57857;DHT22;43683;48.650;9.290;2023-05-07T05:58:07;12.80;87.40
57857;DHT22;43683;48.650;9.290;2023-05-07T06:00:32;13.60;85.10
57857;DHT22;43683;48.650;9.290;2023-05-07T06:02:58;15.00;78.90
57857;DHT22;43683;48.650;9.290;2023-05-07T06:05:23;16.10;74.60
57857;DHT22;43683;48.650;9.290;2023-05-07T06:07:49;16.70;72.40
57857;DHT22;43683;48.650;9.290;2023-05-07T06:10:14;17.30;70.40
57857;DHT22;43683;48.650;9.290;2023-05-07T06:12:40;17.80;69.10
57857;DHT22;43683;48.650;9.290;2023-05-07T06:15:06;18.20;67.80
57857;DHT22;43683;48.650;9.290;2023-05-07T06:17:32;18.30;67.80
57857;DHT22;43683;48.650;9.290;2023-05-07T06:19:57;18.10;68.70
57857;DHT22;43683;48.650;9.290;2023-05-07T06:22:23;18.10;69.00
57857;DHT22;43683;48.650;9.290;2023-05-07T06:24:48;18.20;68.90
57857;DHT22;43683;48.650;9.290;2023-05-07T06:27:14;18.30;69.30
57857;DHT22;43683;48.650;9.290;2023-05-07T06:29:39;18.30;69.60
57857;DHT22;43683;48.650;9.290;2023-05-07T06:34:33;17.90;71.30
57857;DHT22;43683;48.650;9.290;2023-05-07T06:36:59;17.70;72.40
57857;DHT22;43683;48.650;9.290;2023-05-07T06:39:24;17.60;73.00
57857;DHT22;43683;48.650;9.290;2023-05-07T06:41:50;17.70;73.20
57857;DHT22;43683;48.650;9.290;2023-05-07T06:44:15;17.90;73.10
57857;DHT22;43683;48.650;9.290;2023-05-07T06:46:41;18.10;72.90
57857;DHT22;43683;48.650;9.290;2023-05-07T06:49:07;18.20;72.80
57857;DHT22;43683;48.650;9.290;2023-05-07T06:51:32;18.30;72.90
57857;DHT22;43683;48.650;9.290;2023-05-07T06:53:58;18.40;72.80
57857;DHT22;43683;48.650;9.290;2023-05-07T06:56:24;18.40;72.40
57857;DHT22;43683;48.650;9.290;2023-05-07T06:58:50;18.40;72.70
57857;DHT22;43683;48.650;9.290;2023-05-07T07:01:15;18.10;73.10
57857;DHT22;43683;48.650;9.290;2023-05-07T07:03:41;17.90;73.80
57857;DHT22;43683;48.650;9.290;2023-05-07T07:06:07;17.90;73.80
57857;DHT22;43683;48.650;9.290;2023-05-07T07:08:32;18.00;73.80
57857;DHT22;43683;48.650;9.290;2023-05-07T07:10:58;18.20;73.50
57857;DHT22;43683;48.650;9.290;2023-05-07T07:13:23;18.30;73.20
57857;DHT22;43683;48.650;9.290;2023-05-07T07:15:49;18.40;73.20
57857;DHT22;43683;48.650;9.290;2023-05-07T07:18:15;18.50;72.80
57857;DHT22;43683;48.650;9.290;2023-05-07T07:20:40;18.70;72.70
57857;DHT22;43683;48.650;9.290;2023-05-07T07:23:06;19.00;72.40
57857;DHT22;43683;48.650;9.290;2023-05-07T07:25:32;19.30;72.10
57857;DHT22;43683;48.650;9.290;2023-05-07T07:27:57;19.60;71.50
57857;DHT22;43683;48.650;9.290;2023-05-07T07:30:23;19.70;71.20
57857;DHT22;43683;48.650;9.290;2023-05-07T07:32:48;20.00;70.90
57857;DHT22;43683;48.650;9.290;2023-05-07T07:35:14;20.30;70.70
57857;DHT22;43683;48.650;9.290;2023-05-07T07:37:39;20.70;70.00
57857;DHT22;43683;48.650;9.290;2023-05-07T07:40:05;21.00;69.40
57857;DHT22;43683;48.650;9.290;2023-05-07T07:42:31;21.10;68.90
57857;DHT22;43683;48.650;9.290;2023-05-07T07:44:57;21.50;68.50
57857;DHT22;43683;48.650;9.290;2023-05-07T07:47:22;21.60;68.00
57857;DHT22;43683;48.650;9.290;2023-05-07T07:49:48;21.60;68.00
57857;DHT22;43683;48.650;9.290;2023-05-07T07:52:14;21.80;67.20
57857;DHT22;43683;48.650;9.290;2023-05-07T07:54:39;21.90;66.60
57857;DHT22;43683;48.650;9.290;2023-05-07T07:57:05;22.10;66.20
57857;DHT22;43683;48.650;9.290;2023-05-07T07:59:30;22.20;65.80
57857;DHT22;43683;48.650;9.290;2023-05-07T08:01:56;22.60;65.50
57857;DHT22;43683;48.650;9.290;2023-05-07T08:04:22;23.00;64.50
57857;DHT22;43683;48.650;9.290;2023-05-07T08:06:48;23.20;63.50
57857;DHT22;43683;48.650;9.290;2023-05-07T08:09:13;23.40;62.80
57857;DHT22;43683;48.650;9.290;2023-05-07T08:11:39;23.50;62.30
57857;DHT22;43683;48.650;9.290;2023-05-07T08:14:05;23.40;62.40
57857;DHT22;43683;48.650;9.290;2023-05-07T08:16:30;23.20;62.10
57857;DHT22;43683;48.650;9.290;2023-05-07T08:18:56;23.20;61.80
57857;DHT22;43683;48.650;9.290;2023-05-07T08:21:22;23.60;62.40
57857;DHT22;43683;48.650;9.290;2023-05-07T08:23:48;24.00;60.40
57857;DHT22;43683;48.650;9.290;2023-05-07T08:26:14;24.30;60.00
57857;DHT22;43683;48.650;9.290;2023-05-07T08:28:39;24.40;59.40
57857;DHT22;43683;48.650;9.290;2023-05-07T08:31:05;24.50;59.50
57857;DHT22;43683;48.650;9.290;2023-05-07T08:33:31;24.70;59.00
57857;DHT22;43683;48.650;9.290;2023-05-07T08:35:56;24.80;58.40
57857;DHT22;43683;48.650;9.290;2023-05-07T08:38:22;25.10;57.60
57857;DHT22;43683;48.650;9.290;2023-05-07T08:40:47;25.30;57.10
57857;DHT22;43683;48.650;9.290;2023-05-07T08:43:14;25.40;56.50
57857;DHT22;43683;48.650;9.290;2023-05-07T08:45:45;25.50;55.90
57857;DHT22;43683;48.650;9.290;2023-05-07T08:48:17;25.70;54.80
57857;DHT22;43683;48.650;9.290;2023-05-07T08:50:43;25.50;54.40
57857;DHT22;43683;48.650;9.290;2023-05-07T08:53:08;25.70;55.10
57857;DHT22;43683;48.650;9.290;2023-05-07T08:55:34;26.00;54.60
57857;DHT22;43683;48.650;9.290;2023-05-07T08:58:00;26.30;53.90
57857;DHT22;43683;48.650;9.290;2023-05-07T09:00:26;26.30;53.70
57857;DHT22;43683;48.650;9.290;2023-05-07T09:02:52;26.30;54.00
57857;DHT22;43683;48.650;9.290;2023-05-07T09:05:18;26.40;53.90
57857;DHT22;43683;48.650;9.290;2023-05-07T09:07:44;26.30;53.60
57857;DHT22;43683;48.650;9.290;2023-05-07T09:10:11;26.40;53.20
57857;DHT22;43683;48.650;9.290;2023-05-07T09:12:36;26.50;53.00
57857;DHT22;43683;48.650;9.290;2023-05-07T09:15:03;26.50;53.10
57857;DHT22;43683;48.650;9.290;2023-05-07T09:17:29;26.50;52.20
57857;DHT22;43683;48.650;9.290;2023-05-07T09:19:54;26.50;52.00
57857;DHT22;43683;48.650;9.290;2023-05-07T09:22:20;26.50;52.10
57857;DHT22;43683;48.650;9.290;2023-05-07T09:24:50;26.60;51.70
57857;DHT22;43683;48.650;9.290;2023-05-07T09:27:17;26.30;52.30
57857;DHT22;43683;48.650;9.290;2023-05-07T09:29:43;26.30;52.70
57857;DHT22;43683;48.650;9.290;2023-05-07T09:32:10;26.30;52.20
57857;DHT22;43683;48.650;9.290;2023-05-07T09:34:36;26.20;52.00
57857;DHT22;43683;48.650;9.290;2023-05-07T09:37:02;26.30;51.70
57857;DHT22;43683;48.650;9.290;2023-05-07T09:39:45;26.30;51.10
57857;DHT22;43683;48.650;9.290;2023-05-07T09:42:11;26.30;51.30
57857;DHT22;43683;48.650;9.290;2023-05-07T09:44:38;26.50;51.20
57857;DHT22;43683;48.650;9.290;2023-05-07T09:47:07;26.60;51.20
57857;DHT22;43683;48.650;9.290;2023-05-07T09:49:36;26.60;50.90
57857;DHT22;43683;48.650;9.290;2023-05-07T09:52:04;26.40;51.00
57857;DHT22;43683;48.650;9.290;2023-05-07T09:54:32;26.40;50.80
57857;DHT22;43683;48.650;9.290;2023-05-07T09:57:00;26.40;51.00
57857;DHT22;43683;48.650;9.290;2023-05-07T09:59:28;26.50;50.40
57857;DHT22;43683;48.650;9.290;2023-05-07T10:01:57;26.70;50.10
57857;DHT22;43683;48.650;9.290;2023-05-07T10:04:24;26.90;49.40
57857;DHT22;43683;48.650;9.290;2023-05-07T10:06:50;27.00;49.30
57857;DHT22;43683;48.650;9.290;2023-05-07T10:09:16;27.10;49.90
57857;DHT22;43683;48.650;9.290;2023-05-07T10:11:42;27.30;50.10
57857;DHT22;43683;48.650;9.290;2023-05-07T10:14:09;27.30;49.70
57857;DHT22;43683;48.650;9.290;2023-05-07T10:16:36;27.20;49.30
57857;DHT22;43683;48.650;9.290;2023-05-07T10:19:05;27.40;49.10
57857;DHT22;43683;48.650;9.290;2023-05-07T10:21:35;27.50;49.90
57857;DHT22;43683;48.650;9.290;2023-05-07T10:24:09;27.40;48.70
57857;DHT22;43683;48.650;9.290;2023-05-07T10:26:43;27.40;48.70
57857;DHT22;43683;48.650;9.290;2023-05-07T10:29:17;27.60;48.80
57857;DHT22;43683;48.650;9.290;2023-05-07T10:34:19;27.70;47.60
57857;DHT22;43683;48.650;9.290;2023-05-07T10:36:46;27.90;47.70
57857;DHT22;43683;48.650;9.290;2023-05-07T10:39:13;27.90;46.60
57857;DHT22;43683;48.650;9.290;2023-05-07T10:41:39;27.90;47.00
57857;DHT22;43683;48.650;9.290;2023-05-07T10:44:04;28.00;46.80
57857;DHT22;43683;48.650;9.290;2023-05-07T10:46:31;28.20;46.40
57857;DHT22;43683;48.650;9.290;2023-05-07T10:51:26;28.30;45.50
57857;DHT22;43683;48.650;9.290;2023-05-07T10:56:36;28.70;44.60
57857;DHT22;43683;48.650;9.290;2023-05-07T11:01:56;28.90;42.70
57857;DHT22;43683;48.650;9.290;2023-05-07T11:04:27;29.00;42.30
57857;DHT22;43683;48.650;9.290;2023-05-07T11:15:10;29.20;42.50
57857;DHT22;43683;48.650;9.290;2023-05-07T11:17:58;29.00;42.90
57857;DHT22;43683;48.650;9.290;2023-05-07T11:20:53;28.70;42.40
57857;DHT22;43683;48.650;9.290;2023-05-07T11:26:07;28.60;42.30
57857;DHT22;43683;48.650;9.290;2023-05-07T11:28:40;28.90;42.00
57857;DHT22;43683;48.650;9.290;2023-05-07T11:31:05;29.30;41.40
57857;DHT22;43683;48.650;9.290;2023-05-07T11:33:31;29.50;41.30
57857;DHT22;43683;48.650;9.290;2023-05-07T11:35:57;29.70;41.60
57857;DHT22;43683;48.650;9.290;2023-05-07T11:38:25;30.00;41.30
57857;DHT22;43683;48.650;9.290;2023-05-07T11:40:51;30.20;41.00
57857;DHT22;43683;48.650;9.290;2023-05-07T11:43:17;30.50;40.70
57857;DHT22;43683;48.650;9.290;2023-05-07T11:45:42;30.60;41.00
57857;DHT22;43683;48.650;9.290;2023-05-07T11:48:08;30.70;40.40
57857;DHT22;43683;48.650;9.290;2023-05-07T11:50:34;30.70;40.00
57857;DHT22;43683;48.650;9.290;2023-05-07T11:52:59;30.60;40.20
57857;DHT22;43683;48.650;9.290;2023-05-07T11:55:25;30.60;40.00
57857;DHT22;43683;48.650;9.290;2023-05-07T11:57:51;30.20;39.90
57857;DHT22;43683;48.650;9.290;2023-05-07T12:00:17;29.70;40.30
57857;DHT22;43683;48.650;9.290;2023-05-07T12:02:45;29.40;40.40
57857;DHT22;43683;48.650;9.290;2023-05-07T12:05:10;28.80;40.60
57857;DHT22;43683;48.650;9.290;2023-05-07T12:07:36;28.20;41.00
57857;DHT22;43683;48.650;9.290;2023-05-07T12:10:05;27.80;41.30
57857;DHT22;43683;48.650;9.290;2023-05-07T12:12:38;27.50;41.20
57857;DHT22;43683;48.650;9.290;2023-05-07T12:15:05;27.30;41.30
57857;DHT22;43683;48.650;9.290;2023-05-07T12:17:30;27.10;41.60
57857;DHT22;43683;48.650;9.290;2023-05-07T12:19:56;26.50;42.30
57857;DHT22;43683;48.650;9.290;2023-05-07T12:22:22;25.70;43.30
57857;DHT22;43683;48.650;9.290;2023-05-07T12:24:50;25.00;44.00
57857;DHT22;43683;48.650;9.290;2023-05-07T12:27:21;24.30;45.10
57857;DHT22;43683;48.650;9.290;2023-05-07T12:29:47;23.80;45.70
57857;DHT22;43683;48.650;9.290;2023-05-07T12:32:15;23.30;46.30
57857;DHT22;43683;48.650;9.290;2023-05-07T12:34:41;22.70;47.00
57857;DHT22;43683;48.650;9.290;2023-05-07T12:37:06;22.30;47.90
57857;DHT22;43683;48.650;9.290;2023-05-07T12:39:32;21.90;48.90
57857;DHT22;43683;48.650;9.290;2023-05-07T12:42:00;21.30;50.30
57857;DHT22;43683;48.650;9.290;2023-05-07T12:44:30;20.40;53.20
57857;DHT22;43683;48.650;9.290;2023-05-07T12:46:56;19.80;55.50
57857;DHT22;43683;48.650;9.290;2023-05-07T12:49:23;19.20;57.00
57857;DHT22;43683;48.650;9.290;2023-05-07T12:51:49;18.80;58.40
57857;DHT22;43683;48.650;9.290;2023-05-07T12:54:35;18.50;59.50
57857;DHT22;43683;48.650;9.290;2023-05-07T12:57:06;18.20;61.50
57857;DHT22;43683;48.650;9.290;2023-05-07T12:59:41;18.00;61.50
57857;DHT22;43683;48.650;9.290;2023-05-07T13:02:08;17.90;62.30
57857;DHT22;43683;48.650;9.290;2023-05-07T13:04:34;17.90;62.20
57857;DHT22;43683;48.650;9.290;2023-05-07T13:07:01;17.90;62.40
57857;DHT22;43683;48.650;9.290;2023-05-07T13:09:26;17.70;62.50
57857;DHT22;43683;48.650;9.290;2023-05-07T13:11:53;17.60;62.20
57857;DHT22;43683;48.650;9.290;2023-05-07T13:14:18;17.60;61.80
57857;DHT22;43683;48.650;9.290;2023-05-07T13:16:46;17.40;61.90
57857;DHT22;43683;48.650;9.290;2023-05-07T13:19:12;17.30;62.50
57857;DHT22;43683;48.650;9.290;2023-05-07T13:21:37;17.20;61.70
57857;DHT22;43683;48.650;9.290;2023-05-07T13:24:03;16.80;62.60
57857;DHT22;43683;48.650;9.290;2023-05-07T13:26:30;16.40;64.00
57857;DHT22;43683;48.650;9.290;2023-05-07T13:28:56;16.20;64.60
57857;DHT22;43683;48.650;9.290;2023-05-07T13:31:22;16.20;64.50
57857;DHT22;43683;48.650;9.290;2023-05-07T13:33:47;16.10;64.40
57857;DHT22;43683;48.650;9.290;2023-05-07T13:36:13;16.20;64.20
57857;DHT22;43683;48.650;9.290;2023-05-07T13:38:41;16.20;64.30
57857;DHT22;43683;48.650;9.290;2023-05-07T13:41:07;15.90;65.70
57857;DHT22;43683;48.650;9.290;2023-05-07T13:43:32;15.30;67.50
57857;DHT22;43683;48.650;9.290;2023-05-07T13:45:59;14.90;68.70
57857;DHT22;43683;48.650;9.290;2023-05-07T13:48:24;14.70;69.40
57857;DHT22;43683;48.650;9.290;2023-05-07T13:50:50;14.60;70.10
57857;DHT22;43683;48.650;9.290;2023-05-07T13:53:16;14.60;70.20
57857;DHT22;43683;48.650;9.290;2023-05-07T13:55:43;14.40;71.40
57857;DHT22;43683;48.650;9.290;2023-05-07T13:58:09;14.30;71.60
57857;DHT22;43683;48.650;9.290;2023-05-07T14:00:35;14.20;71.60
57857;DHT22;43683;48.650;9.290;2023-05-07T14:03:01;14.10;72.00
57857;DHT22;43683;48.650;9.290;2023-05-07T14:05:26;14.00;72.20
57857;DHT22;43683;48.650;9.290;2023-05-07T14:07:56;14.00;72.50
57857;DHT22;43683;48.650;9.290;2023-05-07T14:10:22;13.90;72.90
57857;DHT22;43683;48.650;9.290;2023-05-07T14:12:48;13.90;72.90
57857;DHT22;43683;48.650;9.290;2023-05-07T14:15:13;13.80;73.10
57857;DHT22;43683;48.650;9.290;2023-05-07T14:17:39;13.80;73.30
57857;DHT22;43683;48.650;9.290;2023-05-07T14:20:05;13.90;73.60
57857;DHT22;43683;48.650;9.290;2023-05-07T14:22:32;13.90;73.70
57857;DHT22;43683;48.650;9.290;2023-05-07T14:24:57;13.90;73.90
57857;DHT22;43683;48.650;9.290;2023-05-07T14:27:23;13.80;74.00
57857;DHT22;43683;48.650;9.290;2023-05-07T14:29:48;13.80;74.00
57857;DHT22;43683;48.650;9.290;2023-05-07T14:32:17;13.80;74.20
57857;DHT22;43683;48.650;9.290;2023-05-07T14:34:43;13.90;74.60
57857;DHT22;43683;48.650;9.290;2023-05-07T14:37:09;13.90;74.70
57857;DHT22;43683;48.650;9.290;2023-05-07T14:39:35;14.10;75.10
57857;DHT22;43683;48.650;9.290;2023-05-07T14:42:01;14.10;75.10
57857;DHT22;43683;48.650;9.290;2023-05-07T14:44:27;14.20;75.60
57857;DHT22;43683;48.650;9.290;2023-05-07T14:46:53;14.20;75.90
57857;DHT22;43683;48.650;9.290;2023-05-07T14:49:18;14.30;76.20
57857;DHT22;43683;48.650;9.290;2023-05-07T14:51:44;14.40;76.50
57857;DHT22;43683;48.650;9.290;2023-05-07T14:54:11;14.40;76.90
57857;DHT22;43683;48.650;9.290;2023-05-07T14:56:37;14.40;77.10
57857;DHT22;43683;48.650;9.290;2023-05-07T14:59:03;14.50;77.70
57857;DHT22;43683;48.650;9.290;2023-05-07T15:01:29;14.50;77.90
57857;DHT22;43683;48.650;9.290;2023-05-07T15:03:54;14.50;78.30
57857;DHT22;43683;48.650;9.290;2023-05-07T15:06:21;14.50;78.60
57857;DHT22;43683;48.650;9.290;2023-05-07T15:08:47;14.60;78.80
57857;DHT22;43683;48.650;9.290;2023-05-07T15:11:14;14.70;78.90
57857;DHT22;43683;48.650;9.290;2023-05-07T15:13:39;14.80;78.90
57857;DHT22;43683;48.650;9.290;2023-05-07T15:16:05;14.90;79.20
57857;DHT22;43683;48.650;9.290;2023-05-07T15:18:30;15.10;79.30
57857;DHT22;43683;48.650;9.290;2023-05-07T15:20:56;15.10;79.70
57857;DHT22;43683;48.650;9.290;2023-05-07T15:23:23;15.10;79.90
57857;DHT22;43683;48.650;9.290;2023-05-07T15:25:48;15.20;80.10
57857;DHT22;43683;48.650;9.290;2023-05-07T15:28:14;15.20;80.40
57857;DHT22;43683;48.650;9.290;2023-05-07T15:30:39;15.20;80.60
57857;DHT22;43683;48.650;9.290;2023-05-07T15:33:05;15.30;80.70
57857;DHT22;43683;48.650;9.290;2023-05-07T15:35:30;15.40;81.00
57857;DHT22;43683;48.650;9.290;2023-05-07T15:37:56;15.30;81.30
57857;DHT22;43683;48.650;9.290;2023-05-07T15:40:21;15.30;81.50
57857;DHT22;43683;48.650;9.290;2023-05-07T15:42:47;15.30;81.70
57857;DHT22;43683;48.650;9.290;2023-05-07T15:45:13;15.40;81.90
57857;DHT22;43683;48.650;9.290;2023-05-07T15:47:38;15.40;81.90
57857;DHT22;43683;48.650;9.290;2023-05-07T15:50:04;15.50;81.90